Nearby METAR Reports

 

KLEX - Lexington, Kentucky, USA
Distance from station: WNW 7mi, 11km
Updated: Fri, 20-Apr-2018 7:54am EDT
Clear
Clear
 Wind from NNE
Wind: NNE 6 mph , 9 km/h
Temperature: 37°F , 3°C
Wind Chill: 32°F , 0°C
Dew Point: 28°F , -2°C
Humidity: 70%
Barometer: 30.42 inHg , 1030.1 hPa
Clouds: Clear
Visibility: 10 miles , 16 km
2018/04/20 11:54 KLEX 201154Z AUTO 02005KT 10SM CLR 03/M02 A3042 RMK AO2 SLP305 T00281022 10044 20011 53015
KFFT - Frankfort, Kentucky, USA
Distance from station: WNW 26mi, 42km
Updated: Fri, 20-Apr-2018 7:53am EDT
Clear
Clear
 Wind from N
Wind: N 7 mph , 11 km/h
Temperature: 37°F , 3°C
Wind Chill: 32°F , 0°C
Dew Point: 27°F , -3°C
Humidity: 65%
Barometer: 30.42 inHg , 1030.1 hPa
Clouds: Clear
Visibility: 10 miles , 16 km
2018/04/20 11:53 KFFT 201153Z AUTO 01006KT 10SM CLR 03/M03 A3042 RMK AO2 SLP305 T00281033 10050 20006 53015
 
KIOB - Mount Sterling, Kentucky, USA
Distance from station: E 27mi, 44km
Updated: Fri, 20-Apr-2018 8:35am EDT
Clear
Clear
 Wind from ENE
Wind: ENE 7 mph , 11 km/h
Temperature: 41°F , 5°C
Wind Chill: 36°F , 2°C
Dew Point: 32°F , 0°C
Humidity: 70%
Barometer: 30.44 inHg , 1030.8 hPa
Clouds: Clear
Visibility: 10 miles , 16 km
2018/04/20 12:35 KIOB 201235Z AUTO 07006KT 10SM CLR 05/00 A3044 RMK AO2
KDVK - Danville, Kentucky, USA
Distance from station: SSW 33mi, 53km
Updated: Fri, 20-Apr-2018 8:35am EDT
Clear
Clear
 Wind from calm
Wind: Calm
Temperature: 37°F , 3°C
Dew Point: 32°F , 0°C
Humidity: 81%
Barometer: 30.44 inHg , 1030.8 hPa
Clouds: Clear
Visibility: 10 miles , 16 km
2018/04/20 12:35 KDVK 201235Z AUTO 00000KT 10SM CLR 03/00 A3044 RMK AO2